createdAt,value
2019-04-10T00:01:23.631Z,2.50
2019-04-10T00:05:27.737Z,2.47
2019-04-10T00:09:30.862Z,2.67
2019-04-10T00:13:34.373Z,2.07
2019-04-10T00:17:37.533Z,2.40
2019-04-10T00:21:41.749Z,2.40
2019-04-10T00:25:48.712Z,2.40
2019-04-10T00:29:52.346Z,2.20
2019-04-10T00:33:55.448Z,2.20
2019-04-10T00:38:05.156Z,2.17
2019-04-10T00:42:08.473Z,2.37
2019-04-10T00:46:11.606Z,2.17
2019-04-10T00:50:14.702Z,2.33
2019-04-10T00:54:18.170Z,2.17
2019-04-10T00:58:21.195Z,2.00
2019-04-10T01:02:24.817Z,2.23
2019-04-10T01:06:28.199Z,2.00
2019-04-10T01:10:34.587Z,2.57
2019-04-10T01:14:38.066Z,2.30
2019-04-10T01:18:47.843Z,2.43
2019-04-10T01:22:51.832Z,2.50
2019-04-10T01:26:55.898Z,2.30
2019-04-10T01:30:59.142Z,2.50
2019-04-10T01:35:02.507Z,2.37
2019-04-10T01:39:08.922Z,2.07
2019-04-10T01:43:15.887Z,2.27
2019-04-10T01:47:20.024Z,2.20
2019-04-10T01:51:23.436Z,2.20
2019-04-10T01:55:29.838Z,2.13
2019-04-10T01:59:32.851Z,2.17
2019-04-10T02:03:36.263Z,2.23
2019-04-10T02:08:08.584Z,2.37
2019-04-10T02:12:07.821Z,2.23
2019-04-10T02:16:10.846Z,2.83
2019-04-10T02:20:14.600Z,2.30
2019-04-10T02:24:18.564Z,2.10
2019-04-10T02:28:24.895Z,2.00
2019-04-10T02:32:28.369Z,2.03
2019-04-10T02:36:31.786Z,2.50
2019-04-10T02:40:37.329Z,2.47
2019-04-10T02:44:41.659Z,2.10
2019-04-10T02:48:44.776Z,2.33
2019-04-10T02:52:50.102Z,2.40
2019-04-10T02:56:52.826Z,2.37
2019-04-10T03:00:56.349Z,2.23
2019-04-10T03:05:07.156Z,2.70
2019-04-10T03:09:30.657Z,2.43
2019-04-10T03:13:19.674Z,2.47
2019-04-10T03:17:26.087Z,2.50
2019-04-10T03:21:29.324Z,2.37
2019-04-10T03:25:33.207Z,2.40
2019-04-10T03:29:36.272Z,2.40
2019-04-10T03:33:52.907Z,2.10
2019-04-10T03:37:55.260Z,2.43
2019-04-10T03:42:01.196Z,2.53
2019-04-10T03:46:05.374Z,2.23
2019-04-10T03:50:10.589Z,2.40
2019-04-10T03:54:13.864Z,2.57
2019-04-10T03:58:17.599Z,2.60
2019-04-10T04:02:27.425Z,2.60
2019-04-10T04:06:31.453Z,2.10
2019-04-10T04:10:37.294Z,2.27
2019-04-10T04:14:40.875Z,2.47
2019-04-10T04:18:44.080Z,2.80
2019-04-10T04:22:47.610Z,2.60
2019-04-10T04:26:51.012Z,3.00
2019-04-10T04:31:00.929Z,2.70
2019-04-10T04:35:11.202Z,2.80
2019-04-10T04:39:21.771Z,2.60
2019-04-10T04:43:28.603Z,2.50
2019-04-10T04:47:31.778Z,2.80
2019-04-10T04:51:37.591Z,2.40
2019-04-10T04:55:40.642Z,2.93
2019-04-10T04:59:50.505Z,2.50
2019-04-10T05:03:54.771Z,2.57
2019-04-10T05:08:02.194Z,2.97
2019-04-10T05:12:09.308Z,2.33
2019-04-10T05:16:12.490Z,2.53
2019-04-10T05:20:21.648Z,2.50
2019-04-10T05:24:24.733Z,2.67
2019-04-10T05:28:33.672Z,2.70
2019-04-10T05:32:37.563Z,2.77
2019-04-10T05:36:41.975Z,2.20
2019-04-10T05:40:45.400Z,2.67
2019-04-10T05:44:52.282Z,2.70
2019-04-10T05:48:58.468Z,3.00
2019-04-10T05:53:10.373Z,2.70
2019-04-10T05:57:20.164Z,2.17
2019-04-10T06:01:35.915Z,2.70
2019-04-10T06:05:36.973Z,2.43
2019-04-10T06:09:52.026Z,3.00
2019-04-10T06:13:45.150Z,3.00
2019-04-10T06:17:49.036Z,2.83
2019-04-10T06:21:52.449Z,3.03
2019-04-10T06:25:58.505Z,2.77
2019-04-10T06:30:01.960Z,2.60
2019-04-10T06:34:05.322Z,2.90
2019-04-10T06:38:08.559Z,3.67
2019-04-10T06:42:14.869Z,2.70
2019-04-10T06:46:17.897Z,2.57
2019-04-10T06:50:24.155Z,3.37
2019-04-10T06:54:31.002Z,2.50
2019-04-10T06:58:34.150Z,2.67
2019-04-10T07:02:40.231Z,2.87
2019-04-10T07:06:57.109Z,3.53
2019-04-10T07:10:55.429Z,3.03
2019-04-10T07:14:57.772Z,2.93
2019-04-10T07:19:01.609Z,3.60
2019-04-10T07:23:03.497Z,3.90
2019-04-10T07:27:09.849Z,3.27
2019-04-10T07:31:13.115Z,3.27
2019-04-10T07:35:19.618Z,3.00
2019-04-10T07:39:21.483Z,3.37
2019-04-10T07:43:27.447Z,3.10
2019-04-10T07:47:29.481Z,3.47
2019-04-10T07:51:32.416Z,3.23
2019-04-10T07:55:35.491Z,2.50
2019-04-10T07:59:38.536Z,3.20
2019-04-10T08:03:41.683Z,3.20
2019-04-10T08:07:45.224Z,3.10
2019-04-10T08:11:48.900Z,3.30
2019-04-10T08:15:52.235Z,3.40
2019-04-10T08:19:59.456Z,3.37
2019-04-10T08:24:02.614Z,3.20
2019-04-10T08:28:16.203Z,3.13
2019-04-10T08:32:19.695Z,4.10
2019-04-10T08:36:25.704Z,3.60
2019-04-10T08:40:32.131Z,3.83
2019-04-10T08:44:38.387Z,3.33
2019-04-10T08:48:41.447Z,3.20
2019-04-10T08:52:44.621Z,3.70
2019-04-10T08:56:54.659Z,4.67
2019-04-10T09:00:58.702Z,4.50
2019-04-10T09:05:01.761Z,3.87
2019-04-10T09:09:07.564Z,3.80
2019-04-10T09:13:10.743Z,3.07
2019-04-10T09:17:13.804Z,3.60
2019-04-10T09:21:17.777Z,3.57
2019-04-10T09:25:20.792Z,3.10
2019-04-10T09:29:24.713Z,3.43
2019-04-10T09:33:30.771Z,3.00
2019-04-10T09:37:34.385Z,3.17
2019-04-10T09:41:38.274Z,2.83
2019-04-10T09:45:41.651Z,3.40
2019-04-10T09:49:46.782Z,3.37
2019-04-10T09:53:51.006Z,3.20
2019-04-10T09:57:54.114Z,3.10
2019-04-10T10:01:58.309Z,3.20
2019-04-10T10:06:04.781Z,2.90
2019-04-10T10:10:08.725Z,2.50
2019-04-10T10:14:15.435Z,2.40
2019-04-10T10:18:19.293Z,1.80
2019-04-10T10:22:25.309Z,2.60
2019-04-10T10:26:34.412Z,3.00
2019-04-10T10:30:37.721Z,2.83
2019-04-10T10:34:40.861Z,2.53
2019-04-10T10:39:02.911Z,2.67
2019-04-10T10:42:54.724Z,2.27
2019-04-10T10:47:06.787Z,2.47
2019-04-10T10:51:10.707Z,2.57
2019-04-10T10:55:17.762Z,3.07
2019-04-10T10:59:21.783Z,2.77
2019-04-10T11:03:30.622Z,3.00
2019-04-10T11:07:36.743Z,2.40
2019-04-10T11:11:40.961Z,2.37
2019-04-10T11:15:48.221Z,2.50
2019-04-10T11:19:55.862Z,2.83
2019-04-10T11:24:03.061Z,2.80
2019-04-10T11:28:09.297Z,2.50
2019-04-10T11:32:14.217Z,2.30
2019-04-10T11:36:17.606Z,2.83
2019-04-10T11:40:20.990Z,2.20
2019-04-10T11:44:24.925Z,2.07
2019-04-10T11:48:32.232Z,2.23
2019-04-10T11:56:40.195Z,2.20
2019-04-10T12:04:54.216Z,2.10
2019-04-10T12:09:13.337Z,1.90
2019-04-10T12:12:58.227Z,1.80
2019-04-10T12:17:05.379Z,1.93
2019-04-10T12:21:09.389Z,2.13
2019-04-10T12:25:14.482Z,1.80
2019-04-10T12:29:19.730Z,2.00
2019-04-10T12:33:25.858Z,1.87
2019-04-10T12:37:29.027Z,2.20
2019-04-10T12:41:33.146Z,2.00
2019-04-10T12:45:36.535Z,1.90
2019-04-10T12:49:43.519Z,2.20
2019-04-10T12:53:49.442Z,1.60
2019-04-10T12:58:00.016Z,2.00
2019-04-10T13:01:57.475Z,2.30
2019-04-10T13:06:05.039Z,2.20
2019-04-10T13:10:08.816Z,1.80
2019-04-10T13:14:20.927Z,2.00
2019-04-10T13:18:24.636Z,2.10
2019-04-10T13:22:28.445Z,2.17
2019-04-10T13:26:32.322Z,1.90
2019-04-10T13:30:46.694Z,2.40
2019-04-10T13:34:40.307Z,1.83
2019-04-10T13:38:44.370Z,2.30
2019-04-10T13:42:47.489Z,2.03
2019-04-10T13:46:51.222Z,2.10
2019-04-10T13:50:57.545Z,2.00
2019-04-10T13:55:01.076Z,2.40
2019-04-10T13:59:04.743Z,2.53
2019-04-10T14:03:08.068Z,2.20
2019-04-10T14:07:12.033Z,2.70
2019-04-10T14:11:17.406Z,2.47
2019-04-10T14:15:20.687Z,2.30
2019-04-10T14:19:27.748Z,2.20
2019-04-10T14:23:33.753Z,2.30
2019-04-10T14:27:38.405Z,2.20
2019-04-10T14:31:51.024Z,2.63
2019-04-10T14:35:54.259Z,2.33
2019-04-10T14:39:57.735Z,2.80
2019-04-10T14:44:01.928Z,2.37
2019-04-10T14:48:05.744Z,2.87
2019-04-10T14:52:12.699Z,2.70
2019-04-10T14:56:15.722Z,2.60
2019-04-10T15:00:37.289Z,2.60
2019-04-10T15:04:41.396Z,3.00
2019-04-10T15:08:48.772Z,2.60
2019-04-10T15:12:53.305Z,3.10
2019-04-10T15:17:06.611Z,2.50
2019-04-10T15:21:12.382Z,2.63
2019-04-10T15:25:15.935Z,2.47
2019-04-10T15:29:20.403Z,2.50
2019-04-10T15:33:24.636Z,2.60
2019-04-10T15:37:29.011Z,3.47
2019-04-10T15:41:35.163Z,3.07
2019-04-10T15:45:38.241Z,3.03
2019-04-10T15:49:41.468Z,2.90
2019-04-10T15:53:51.420Z,2.50
2019-04-10T15:57:57.889Z,2.50
2019-04-10T16:02:00.094Z,2.40
2019-04-10T16:06:06.144Z,2.60
2019-04-10T16:10:28.997Z,2.60
2019-04-10T16:14:33.264Z,2.20
2019-04-10T16:18:36.692Z,2.20
2019-04-10T16:22:46.769Z,2.00
2019-04-10T16:26:49.849Z,2.10
2019-04-10T16:30:52.919Z,2.60
2019-04-10T16:34:56.791Z,2.33
2019-04-10T16:39:00.808Z,2.47
2019-04-10T16:43:05.957Z,2.50
2019-04-10T16:47:10.011Z,2.43
2019-04-10T16:51:17.238Z,2.70
2019-04-10T16:55:21.470Z,2.03
2019-04-10T16:59:25.521Z,2.70
2019-04-10T17:03:29.593Z,2.77
2019-04-10T17:07:32.979Z,2.47
2019-04-10T17:11:37.272Z,2.23
2019-04-10T17:15:41.815Z,2.80
2019-04-10T17:19:52.127Z,2.70
2019-04-10T17:23:51.032Z,2.73
2019-04-10T17:27:54.235Z,3.20
2019-04-10T17:31:57.381Z,3.10
2019-04-10T17:36:04.275Z,3.40
2019-04-10T17:40:25.051Z,3.20
2019-04-10T17:44:17.987Z,3.27
2019-04-10T17:48:22.000Z,3.60
2019-04-10T17:52:25.302Z,5.17
2019-04-10T17:56:30.539Z,3.10
2019-04-10T18:00:43.205Z,3.53
2019-04-10T18:04:46.363Z,3.20
2019-04-10T18:08:49.405Z,3.53
2019-04-10T18:12:52.401Z,3.43
2019-04-10T18:16:58.210Z,3.40
2019-04-10T18:21:07.183Z,3.30
2019-04-10T18:25:16.177Z,3.67
2019-04-10T18:29:23.253Z,4.03
2019-04-10T18:33:26.539Z,3.57
2019-04-10T18:37:30.760Z,4.00
2019-04-10T18:41:34.313Z,3.30
2019-04-10T18:45:42.038Z,3.90
2019-04-10T18:49:48.551Z,3.67
2019-04-10T18:53:51.560Z,3.53
2019-04-10T18:57:54.937Z,3.10
2019-04-10T19:02:20.207Z,3.37
2019-04-10T19:06:28.639Z,3.53
2019-04-10T19:10:35.018Z,3.50
2019-04-10T19:14:38.685Z,3.70
2019-04-10T19:18:41.875Z,3.33
2019-04-10T19:22:45.011Z,2.97
2019-04-10T19:26:53.923Z,3.10
2019-04-10T19:31:08.790Z,3.80
2019-04-10T19:35:06.947Z,3.97
2019-04-10T19:39:16.094Z,3.30
2019-04-10T19:43:27.535Z,3.43
2019-04-10T19:47:33.104Z,3.30
2019-04-10T19:51:36.396Z,3.43
2019-04-10T19:55:40.048Z,4.10
2019-04-10T19:59:44.076Z,3.87
2019-04-10T20:03:48.032Z,3.97
2019-04-10T20:07:51.404Z,3.60
2019-04-10T20:11:57.198Z,3.97
2019-04-10T20:16:00.740Z,3.77
2019-04-10T20:20:04.749Z,3.70
2019-04-10T20:24:08.203Z,3.70
2019-04-10T20:28:12.269Z,4.13
2019-04-10T20:32:15.398Z,4.20
2019-04-10T20:36:22.685Z,3.77
2019-04-10T20:40:25.855Z,3.43
2019-04-10T20:44:29.141Z,3.90
2019-04-10T20:48:32.811Z,3.60
2019-04-10T20:52:39.089Z,4.30
2019-04-10T20:56:41.080Z,3.53
2019-04-10T21:00:47.422Z,3.87
2019-04-10T21:04:56.408Z,4.00
2019-04-10T21:08:55.425Z,3.50
2019-04-10T21:12:59.690Z,4.10
2019-04-10T21:17:03.171Z,3.80
2019-04-10T21:21:10.197Z,3.63
2019-04-10T21:25:17.038Z,3.80
2019-04-10T21:29:44.188Z,3.80
2019-04-10T21:34:07.633Z,4.37
2019-04-10T21:38:11.015Z,3.70
2019-04-10T21:42:20.064Z,3.90
2019-04-10T21:46:19.968Z,3.87
2019-04-10T21:50:23.255Z,3.70
2019-04-10T21:54:26.993Z,3.83
2019-04-10T21:58:32.933Z,4.27
2019-04-10T22:02:46.271Z,4.20
2019-04-10T22:07:14.076Z,3.47
2019-04-10T22:11:21.153Z,3.90
2019-04-10T22:15:39.315Z,4.57
2019-04-10T22:19:43.083Z,4.20
2019-04-10T22:23:46.978Z,3.30
2019-04-10T22:27:54.166Z,4.07
2019-04-10T22:32:00.348Z,3.97
2019-04-10T22:36:06.704Z,3.77
2019-04-10T22:40:11.208Z,3.80
2019-04-10T22:44:14.300Z,4.17
2019-04-10T22:48:17.341Z,3.63
2019-04-10T22:52:20.635Z,3.60
2019-04-10T22:56:23.773Z,4.10
2019-04-10T23:00:32.416Z,3.87
2019-04-10T23:04:42.823Z,4.23
2019-04-10T23:08:46.064Z,3.83
2019-04-10T23:13:01.320Z,4.00
2019-04-10T23:17:00.278Z,3.50
2019-04-10T23:21:03.982Z,3.93
2019-04-10T23:25:10.284Z,3.03
2019-04-10T23:29:16.391Z,3.83
2019-04-10T23:33:19.712Z,4.03
2019-04-10T23:37:22.771Z,3.60
2019-04-10T23:41:29.604Z,3.83
2019-04-10T23:45:33.528Z,3.77
2019-04-10T23:49:37.380Z,3.90
2019-04-10T23:53:40.536Z,3.40
2019-04-10T23:57:46.603Z,3.33
